sensor_id;sensor_type;location;lat;lon;timestamp;temperature;humidity
19252;DHT22;9760;50.944;5.304;2023-02-28T00:02:08;0.60;99.90
19252;DHT22;9760;50.944;5.304;2023-02-28T00:04:33;0.60;99.90
19252;DHT22;9760;50.944;5.304;2023-02-28T00:06:59;0.70;99.90
19252;DHT22;9760;50.944;5.304;2023-02-28T00:09:24;0.70;99.90
19252;DHT22;9760;50.944;5.304;2023-02-28T00:11:50;0.70;99.90
19252;DHT22;9760;50.944;5.304;2023-02-28T00:14:15;0.60;99.90
19252;DHT22;9760;50.944;5.304;2023-02-28T00:16:41;0.60;99.90
19252;DHT22;9760;50.944;5.304;2023-02-28T00:19:07;0.60;99.90
19252;DHT22;9760;50.944;5.304;2023-02-28T00:21:39;0.60;99.90
19252;DHT22;9760;50.944;5.304;2023-02-28T00:24:06;0.60;99.90
19252;DHT22;9760;50.944;5.304;2023-02-28T00:26:32;0.60;99.90
19252;DHT22;9760;50.944;5.304;2023-02-28T00:28:58;0.60;99.90
19252;DHT22;9760;50.944;5.304;2023-02-28T00:31:23;0.60;99.90
19252;DHT22;9760;50.944;5.304;2023-02-28T00:33:49;0.60;99.90
19252;DHT22;9760;50.944;5.304;2023-02-28T00:36:16;0.60;99.90
19252;DHT22;9760;50.944;5.304;2023-02-28T00:38:41;0.50;99.90
19252;DHT22;9760;50.944;5.304;2023-02-28T00:41:08;0.50;99.90
19252;DHT22;9760;50.944;5.304;2023-02-28T00:43:35;0.50;99.90
19252;DHT22;9760;50.944;5.304;2023-02-28T00:46:01;0.50;99.90
19252;DHT22;9760;50.944;5.304;2023-02-28T00:48:27;0.50;99.90
19252;DHT22;9760;50.944;5.304;2023-02-28T00:50:53;0.50;99.90
19252;DHT22;9760;50.944;5.304;2023-02-28T00:53:18;0.40;99.90
19252;DHT22;9760;50.944;5.304;2023-02-28T00:55:44;0.40;99.90
19252;DHT22;9760;50.944;5.304;2023-02-28T00:58:09;0.30;99.90
19252;DHT22;9760;50.944;5.304;2023-02-28T01:00:35;0.40;99.90
19252;DHT22;9760;50.944;5.304;2023-02-28T01:03:01;0.40;99.90
19252;DHT22;9760;50.944;5.304;2023-02-28T01:05:26;0.40;99.90
19252;DHT22;9760;50.944;5.304;2023-02-28T01:07:52;0.40;99.90
19252;DHT22;9760;50.944;5.304;2023-02-28T01:10:17;0.40;99.90
19252;DHT22;9760;50.944;5.304;2023-02-28T01:12:43;0.40;99.90
19252;DHT22;9760;50.944;5.304;2023-02-28T01:15:10;0.30;99.90
19252;DHT22;9760;50.944;5.304;2023-02-28T01:17:36;0.30;99.90
19252;DHT22;9760;50.944;5.304;2023-02-28T01:20:02;0.30;99.90
19252;DHT22;9760;50.944;5.304;2023-02-28T01:22:28;0.30;99.90
19252;DHT22;9760;50.944;5.304;2023-02-28T01:24:54;0.20;99.90
19252;DHT22;9760;50.944;5.304;2023-02-28T01:27:19;0.20;99.90
19252;DHT22;9760;50.944;5.304;2023-02-28T01:29:45;0.20;99.90
19252;DHT22;9760;50.944;5.304;2023-02-28T01:32:11;0.20;99.90
19252;DHT22;9760;50.944;5.304;2023-02-28T01:34:36;0.10;99.90
19252;DHT22;9760;50.944;5.304;2023-02-28T01:37:02;0.10;99.90
19252;DHT22;9760;50.944;5.304;2023-02-28T01:39:28;0.10;99.90
19252;DHT22;9760;50.944;5.304;2023-02-28T01:41:54;0.00;99.90
19252;DHT22;9760;50.944;5.304;2023-02-28T01:47:20;0.00;99.90
19252;DHT22;9760;50.944;5.304;2023-02-28T01:49:46;-0.10;99.90
19252;DHT22;9760;50.944;5.304;2023-02-28T01:52:14;-0.10;99.90
19252;DHT22;9760;50.944;5.304;2023-02-28T01:54:45;-0.20;99.90
19252;DHT22;9760;50.944;5.304;2023-02-28T01:57:17;-0.10;99.90
19252;DHT22;9760;50.944;5.304;2023-02-28T01:59:52;-0.10;99.90
19252;DHT22;9760;50.944;5.304;2023-02-28T02:02:21;-0.10;99.90
19252;DHT22;9760;50.944;5.304;2023-02-28T02:05:06;-0.20;99.90
19252;DHT22;9760;50.944;5.304;2023-02-28T02:07:40;-0.20;99.90
19252;DHT22;9760;50.944;5.304;2023-02-28T02:16:04;-0.20;99.90
19252;DHT22;9760;50.944;5.304;2023-02-28T02:18:52;-0.30;99.90
19252;DHT22;9760;50.944;5.304;2023-02-28T02:26:43;-0.20;99.90
19252;DHT22;9760;50.944;5.304;2023-02-28T02:37:20;-0.30;99.90
19252;DHT22;9760;50.944;5.304;2023-02-28T02:39:53;-0.30;99.90
19252;DHT22;9760;50.944;5.304;2023-02-28T02:42:51;-0.30;99.90
19252;DHT22;9760;50.944;5.304;2023-02-28T02:45:22;-0.30;99.90
19252;DHT22;9760;50.944;5.304;2023-02-28T02:47:49;-0.30;99.90
19252;DHT22;9760;50.944;5.304;2023-02-28T02:50:26;-0.30;99.90
19252;DHT22;9760;50.944;5.304;2023-02-28T02:52:57;-0.30;99.90
19252;DHT22;9760;50.944;5.304;2023-02-28T02:55:25;-0.30;99.90
19252;DHT22;9760;50.944;5.304;2023-02-28T02:58:00;-0.40;99.90
19252;DHT22;9760;50.944;5.304;2023-02-28T03:00:33;-0.40;99.90
19252;DHT22;9760;50.944;5.304;2023-02-28T03:03:00;-0.40;99.90
19252;DHT22;9760;50.944;5.304;2023-02-28T03:05:30;-0.40;99.90
19252;DHT22;9760;50.944;5.304;2023-02-28T03:07:57;-0.50;99.90
19252;DHT22;9760;50.944;5.304;2023-02-28T03:10:44;-0.40;99.90
19252;DHT22;9760;50.944;5.304;2023-02-28T03:13:46;-0.40;99.90
19252;DHT22;9760;50.944;5.304;2023-02-28T03:33:02;-0.60;99.90
19252;DHT22;9760;50.944;5.304;2023-02-28T03:35:40;-0.60;99.90
19252;DHT22;9760;50.944;5.304;2023-02-28T03:38:12;-0.60;99.90
19252;DHT22;9760;50.944;5.304;2023-02-28T03:40:43;-0.60;99.90
19252;DHT22;9760;50.944;5.304;2023-02-28T03:43:14;-0.50;99.90
19252;DHT22;9760;50.944;5.304;2023-02-28T03:45:43;-0.50;99.90
19252;DHT22;9760;50.944;5.304;2023-02-28T03:48:19;-0.40;99.90
19252;DHT22;9760;50.944;5.304;2023-02-28T03:50:49;-0.40;99.90
19252;DHT22;9760;50.944;5.304;2023-02-28T03:53:32;-0.40;99.90
19252;DHT22;9760;50.944;5.304;2023-02-28T03:56:19;-0.30;99.90
19252;DHT22;9760;50.944;5.304;2023-02-28T03:59:10;-0.30;99.90
19252;DHT22;9760;50.944;5.304;2023-02-28T04:01:41;-0.30;99.90
19252;DHT22;9760;50.944;5.304;2023-02-28T04:04:08;-0.30;99.90
19252;DHT22;9760;50.944;5.304;2023-02-28T04:06:35;-0.20;99.90
19252;DHT22;9760;50.944;5.304;2023-02-28T04:09:02;-0.30;99.90
19252;DHT22;9760;50.944;5.304;2023-02-28T04:11:35;-0.30;99.90
19252;DHT22;9760;50.944;5.304;2023-02-28T04:14:06;-0.30;99.90
19252;DHT22;9760;50.944;5.304;2023-02-28T04:16:34;-0.40;99.90
19252;DHT22;9760;50.944;5.304;2023-02-28T04:19:00;-0.50;99.90
19252;DHT22;9760;50.944;5.304;2023-02-28T04:21:35;-0.50;99.90
19252;DHT22;9760;50.944;5.304;2023-02-28T04:24:02;-0.50;99.90
19252;DHT22;9760;50.944;5.304;2023-02-28T04:26:32;-0.50;99.90
19252;DHT22;9760;50.944;5.304;2023-02-28T04:28:59;-0.50;99.90
19252;DHT22;9760;50.944;5.304;2023-02-28T04:31:24;-0.50;99.90
19252;DHT22;9760;50.944;5.304;2023-02-28T04:33:50;-0.50;99.90
19252;DHT22;9760;50.944;5.304;2023-02-28T04:36:16;-0.50;99.90
19252;DHT22;9760;50.944;5.304;2023-02-28T04:38:43;-0.60;99.90
19252;DHT22;9760;50.944;5.304;2023-02-28T04:41:10;-0.60;99.90
19252;DHT22;9760;50.944;5.304;2023-02-28T04:43:35;-0.60;99.90
19252;DHT22;9760;50.944;5.304;2023-02-28T04:46:03;-0.60;99.90
19252;DHT22;9760;50.944;5.304;2023-02-28T04:48:31;-0.60;99.90
19252;DHT22;9760;50.944;5.304;2023-02-28T04:51:08;-0.60;99.90
19252;DHT22;9760;50.944;5.304;2023-02-28T04:53:35;-0.60;99.90
19252;DHT22;9760;50.944;5.304;2023-02-28T04:56:02;-0.70;99.90
19252;DHT22;9760;50.944;5.304;2023-02-28T04:58:28;-0.80;99.90
19252;DHT22;9760;50.944;5.304;2023-02-28T05:01:02;-0.80;99.90
19252;DHT22;9760;50.944;5.304;2023-02-28T05:03:28;-0.80;99.90
19252;DHT22;9760;50.944;5.304;2023-02-28T05:05:53;-0.80;99.90
19252;DHT22;9760;50.944;5.304;2023-02-28T05:08:19;-0.90;99.90
19252;DHT22;9760;50.944;5.304;2023-02-28T05:10:45;-0.90;99.90
19252;DHT22;9760;50.944;5.304;2023-02-28T05:13:13;-0.90;99.90
19252;DHT22;9760;50.944;5.304;2023-02-28T05:15:39;-0.90;99.90
19252;DHT22;9760;50.944;5.304;2023-02-28T05:18:04;-0.90;99.90
19252;DHT22;9760;50.944;5.304;2023-02-28T05:20:30;-0.90;99.90
19252;DHT22;9760;50.944;5.304;2023-02-28T05:22:57;-0.90;99.90
19252;DHT22;9760;50.944;5.304;2023-02-28T05:25:24;-1.00;99.90
19252;DHT22;9760;50.944;5.304;2023-02-28T05:27:49;-1.10;99.90
19252;DHT22;9760;50.944;5.304;2023-02-28T05:30:16;-1.10;99.90
19252;DHT22;9760;50.944;5.304;2023-02-28T05:32:41;-1.10;99.90
19252;DHT22;9760;50.944;5.304;2023-02-28T05:35:11;-1.10;99.90
19252;DHT22;9760;50.944;5.304;2023-02-28T05:37:37;-1.10;99.90
19252;DHT22;9760;50.944;5.304;2023-02-28T05:40:04;-1.20;99.90
19252;DHT22;9760;50.944;5.304;2023-02-28T05:42:37;-1.30;99.90
19252;DHT22;9760;50.944;5.304;2023-02-28T05:45:03;-1.30;99.90
19252;DHT22;9760;50.944;5.304;2023-02-28T05:47:29;-1.30;99.90
19252;DHT22;9760;50.944;5.304;2023-02-28T05:49:55;-1.20;99.90
19252;DHT22;9760;50.944;5.304;2023-02-28T05:52:20;-1.20;99.90
19252;DHT22;9760;50.944;5.304;2023-02-28T05:54:46;-1.20;99.90
19252;DHT22;9760;50.944;5.304;2023-02-28T05:57:12;-1.20;99.90
19252;DHT22;9760;50.944;5.304;2023-02-28T05:59:38;-1.20;99.90
19252;DHT22;9760;50.944;5.304;2023-02-28T06:02:10;-1.30;99.90
19252;DHT22;9760;50.944;5.304;2023-02-28T06:04:37;-1.30;99.90
19252;DHT22;9760;50.944;5.304;2023-02-28T06:07:03;-1.30;99.90
19252;DHT22;9760;50.944;5.304;2023-02-28T06:09:28;-1.30;99.90
19252;DHT22;9760;50.944;5.304;2023-02-28T06:11:54;-1.30;99.90
19252;DHT22;9760;50.944;5.304;2023-02-28T06:14:22;-1.30;99.90
19252;DHT22;9760;50.944;5.304;2023-02-28T06:16:48;-1.30;99.90
19252;DHT22;9760;50.944;5.304;2023-02-28T06:19:13;-1.20;99.90
19252;DHT22;9760;50.944;5.304;2023-02-28T06:21:40;-1.30;99.90
19252;DHT22;9760;50.944;5.304;2023-02-28T06:24:06;-1.30;99.90
19252;DHT22;9760;50.944;5.304;2023-02-28T06:26:32;-1.30;99.90
19252;DHT22;9760;50.944;5.304;2023-02-28T06:28:58;-1.30;99.90
19252;DHT22;9760;50.944;5.304;2023-02-28T06:31:23;-1.30;99.90
19252;DHT22;9760;50.944;5.304;2023-02-28T06:33:51;-1.30;99.90
19252;DHT22;9760;50.944;5.304;2023-02-28T06:36:17;-1.30;99.90
19252;DHT22;9760;50.944;5.304;2023-02-28T06:38:43;-1.30;99.90
19252;DHT22;9760;50.944;5.304;2023-02-28T06:41:09;-1.30;99.90
19252;DHT22;9760;50.944;5.304;2023-02-28T06:43:38;-1.30;99.90
19252;DHT22;9760;50.944;5.304;2023-02-28T06:46:06;-1.30;99.90
19252;DHT22;9760;50.944;5.304;2023-02-28T06:48:32;-1.20;99.90
19252;DHT22;9760;50.944;5.304;2023-02-28T06:51:06;-1.20;99.90
19252;DHT22;9760;50.944;5.304;2023-02-28T06:53:32;-1.20;99.90
19252;DHT22;9760;50.944;5.304;2023-02-28T06:55:58;-1.20;99.90
19252;DHT22;9760;50.944;5.304;2023-02-28T06:58:24;-1.20;99.90
19252;DHT22;9760;50.944;5.304;2023-02-28T07:00:51;-1.10;99.90
19252;DHT22;9760;50.944;5.304;2023-02-28T07:03:17;-1.10;99.90
19252;DHT22;9760;50.944;5.304;2023-02-28T07:05:44;-1.00;99.90
19252;DHT22;9760;50.944;5.304;2023-02-28T07:08:10;-1.00;99.90
19252;DHT22;9760;50.944;5.304;2023-02-28T07:10:39;-0.90;99.90
19252;DHT22;9760;50.944;5.304;2023-02-28T07:13:07;-0.80;99.90
19252;DHT22;9760;50.944;5.304;2023-02-28T07:15:32;-0.80;99.90
19252;DHT22;9760;50.944;5.304;2023-02-28T07:17:58;-0.70;99.90
19252;DHT22;9760;50.944;5.304;2023-02-28T07:20:24;-0.70;99.90
19252;DHT22;9760;50.944;5.304;2023-02-28T07:22:50;-0.70;99.90
19252;DHT22;9760;50.944;5.304;2023-02-28T07:25:25;-0.60;99.90
19252;DHT22;9760;50.944;5.304;2023-02-28T07:27:53;-0.60;99.90
19252;DHT22;9760;50.944;5.304;2023-02-28T07:30:19;-0.50;99.90
19252;DHT22;9760;50.944;5.304;2023-02-28T07:32:45;-0.40;99.90
19252;DHT22;9760;50.944;5.304;2023-02-28T07:35:11;-0.40;99.90
19252;DHT22;9760;50.944;5.304;2023-02-28T07:37:37;-0.30;99.90
19252;DHT22;9760;50.944;5.304;2023-02-28T07:40:04;-0.20;99.90
19252;DHT22;9760;50.944;5.304;2023-02-28T07:42:32;-0.20;99.90
19252;DHT22;9760;50.944;5.304;2023-02-28T07:44:58;-0.10;99.90
19252;DHT22;9760;50.944;5.304;2023-02-28T07:47:24;-0.10;99.90
19252;DHT22;9760;50.944;5.304;2023-02-28T07:49:50;0.00;99.90
19252;DHT22;9760;50.944;5.304;2023-02-28T07:52:16;0.00;99.90
19252;DHT22;9760;50.944;5.304;2023-02-28T07:54:42;0.10;99.90
19252;DHT22;9760;50.944;5.304;2023-02-28T07:57:07;0.10;99.90
19252;DHT22;9760;50.944;5.304;2023-02-28T07:59:33;0.20;99.90
19252;DHT22;9760;50.944;5.304;2023-02-28T08:01:59;0.20;99.90
19252;DHT22;9760;50.944;5.304;2023-02-28T08:04:24;0.30;99.90
19252;DHT22;9760;50.944;5.304;2023-02-28T08:06:50;0.40;99.90
19252;DHT22;9760;50.944;5.304;2023-02-28T08:09:18;0.40;99.90
19252;DHT22;9760;50.944;5.304;2023-02-28T08:11:44;0.50;99.90
19252;DHT22;9760;50.944;5.304;2023-02-28T08:14:09;0.60;99.90
19252;DHT22;9760;50.944;5.304;2023-02-28T08:16:35;0.60;99.90
19252;DHT22;9760;50.944;5.304;2023-02-28T08:19:01;0.70;99.90
19252;DHT22;9760;50.944;5.304;2023-02-28T08:21:26;0.80;99.90
19252;DHT22;9760;50.944;5.304;2023-02-28T08:23:52;0.80;99.90
19252;DHT22;9760;50.944;5.304;2023-02-28T08:26:18;0.90;99.90
19252;DHT22;9760;50.944;5.304;2023-02-28T08:28:45;1.00;99.90
19252;DHT22;9760;50.944;5.304;2023-02-28T08:31:13;1.10;99.90
19252;DHT22;9760;50.944;5.304;2023-02-28T08:33:40;1.10;99.90
19252;DHT22;9760;50.944;5.304;2023-02-28T08:36:07;1.20;99.90
19252;DHT22;9760;50.944;5.304;2023-02-28T08:38:33;1.30;99.90
19252;DHT22;9760;50.944;5.304;2023-02-28T08:41:01;1.30;99.90
19252;DHT22;9760;50.944;5.304;2023-02-28T08:43:28;1.40;99.90
19252;DHT22;9760;50.944;5.304;2023-02-28T08:45:55;1.50;99.90
19252;DHT22;9760;50.944;5.304;2023-02-28T08:48:29;1.60;99.90
19252;DHT22;9760;50.944;5.304;2023-02-28T08:51:03;1.70;99.90
19252;DHT22;9760;50.944;5.304;2023-02-28T08:53:29;1.80;99.90
19252;DHT22;9760;50.944;5.304;2023-02-28T08:56:00;1.90;99.90
19252;DHT22;9760;50.944;5.304;2023-02-28T08:58:27;2.00;99.90
19252;DHT22;9760;50.944;5.304;2023-02-28T09:00:53;2.20;99.90
19252;DHT22;9760;50.944;5.304;2023-02-28T09:03:19;2.30;99.90
19252;DHT22;9760;50.944;5.304;2023-02-28T09:06:12;2.40;99.90
19252;DHT22;9760;50.944;5.304;2023-02-28T09:08:38;2.40;99.90
19252;DHT22;9760;50.944;5.304;2023-02-28T09:11:04;2.50;99.90
19252;DHT22;9760;50.944;5.304;2023-02-28T09:13:30;2.70;99.90
19252;DHT22;9760;50.944;5.304;2023-02-28T09:15:58;2.80;99.90
19252;DHT22;9760;50.944;5.304;2023-02-28T09:18:24;2.90;99.90
19252;DHT22;9760;50.944;5.304;2023-02-28T09:20:50;2.90;99.90
19252;DHT22;9760;50.944;5.304;2023-02-28T09:23:16;3.10;99.90
19252;DHT22;9760;50.944;5.304;2023-02-28T09:25:47;3.30;99.90
19252;DHT22;9760;50.944;5.304;2023-02-28T09:28:13;3.50;99.90
19252;DHT22;9760;50.944;5.304;2023-02-28T09:30:41;3.50;99.90
19252;DHT22;9760;50.944;5.304;2023-02-28T09:33:06;3.60;99.90
19252;DHT22;9760;50.944;5.304;2023-02-28T09:35:32;3.60;99.90
19252;DHT22;9760;50.944;5.304;2023-02-28T09:37:58;3.70;99.90
19252;DHT22;9760;50.944;5.304;2023-02-28T09:40:25;3.80;99.90
19252;DHT22;9760;50.944;5.304;2023-02-28T09:42:54;3.90;99.90
19252;DHT22;9760;50.944;5.304;2023-02-28T09:45:36;4.10;99.90
19252;DHT22;9760;50.944;5.304;2023-02-28T09:48:25;4.10;99.90
19252;DHT22;9760;50.944;5.304;2023-02-28T09:51:00;4.10;99.90
19252;DHT22;9760;50.944;5.304;2023-02-28T09:53:33;4.10;99.90
19252;DHT22;9760;50.944;5.304;2023-02-28T09:56:08;4.20;99.90
19252;DHT22;9760;50.944;5.304;2023-02-28T10:01:20;4.40;99.90
19252;DHT22;9760;50.944;5.304;2023-02-28T10:03:59;4.60;99.90
19252;DHT22;9760;50.944;5.304;2023-02-28T10:06:32;4.60;99.90
19252;DHT22;9760;50.944;5.304;2023-02-28T10:09:04;4.70;99.90
19252;DHT22;9760;50.944;5.304;2023-02-28T10:11:33;4.70;99.90
19252;DHT22;9760;50.944;5.304;2023-02-28T10:14:18;4.90;99.90
19252;DHT22;9760;50.944;5.304;2023-02-28T10:16:48;5.00;99.90
19252;DHT22;9760;50.944;5.304;2023-02-28T10:22:14;5.20;99.90
19252;DHT22;9760;50.944;5.304;2023-02-28T10:24:47;5.50;99.90
19252;DHT22;9760;50.944;5.304;2023-02-28T10:27:22;5.30;99.90
19252;DHT22;9760;50.944;5.304;2023-02-28T10:29:50;5.60;99.90
19252;DHT22;9760;50.944;5.304;2023-02-28T10:32:30;5.80;99.90
19252;DHT22;9760;50.944;5.304;2023-02-28T10:37:33;6.30;99.90
19252;DHT22;9760;50.944;5.304;2023-02-28T10:40:11;6.50;99.90
19252;DHT22;9760;50.944;5.304;2023-02-28T10:42:57;6.20;99.90
19252;DHT22;9760;50.944;5.304;2023-02-28T10:45:24;6.60;99.90
19252;DHT22;9760;50.944;5.304;2023-02-28T10:47:54;6.70;99.90
19252;DHT22;9760;50.944;5.304;2023-02-28T10:58:53;6.40;99.90
19252;DHT22;9760;50.944;5.304;2023-02-28T11:03:55;7.70;99.90
19252;DHT22;9760;50.944;5.304;2023-02-28T11:06:33;7.70;99.90
19252;DHT22;9760;50.944;5.304;2023-02-28T11:09:21;8.60;99.90
19252;DHT22;9760;50.944;5.304;2023-02-28T11:11:49;8.70;99.90
19252;DHT22;9760;50.944;5.304;2023-02-28T11:14:20;8.00;99.80
19252;DHT22;9760;50.944;5.304;2023-02-28T11:16:47;8.10;99.00
19252;DHT22;9760;50.944;5.304;2023-02-28T11:19:27;7.70;98.80
19252;DHT22;9760;50.944;5.304;2023-02-28T11:21:59;7.90;99.10
19252;DHT22;9760;50.944;5.304;2023-02-28T11:24:29;7.80;99.30
19252;DHT22;9760;50.944;5.304;2023-02-28T11:26:56;7.40;98.50
19252;DHT22;9760;50.944;5.304;2023-02-28T11:34:37;5.90;99.90
19252;DHT22;9760;50.944;5.304;2023-02-28T11:37:05;5.70;99.90
19252;DHT22;9760;50.944;5.304;2023-02-28T11:39:32;5.40;99.00
19252;DHT22;9760;50.944;5.304;2023-02-28T11:44:56;5.20;99.50
19252;DHT22;9760;50.944;5.304;2023-02-28T11:47:45;5.30;99.90
19252;DHT22;9760;50.944;5.304;2023-02-28T11:53:04;5.30;98.90
19252;DHT22;9760;50.944;5.304;2023-02-28T12:06:25;5.20;99.90
19252;DHT22;9760;50.944;5.304;2023-02-28T12:11:56;5.20;99.90
19252;DHT22;9760;50.944;5.304;2023-02-28T12:17:41;5.20;99.90
19252;DHT22;9760;50.944;5.304;2023-02-28T12:20:25;5.30;99.90
19252;DHT22;9760;50.944;5.304;2023-02-28T12:23:00;5.40;99.90
19252;DHT22;9760;50.944;5.304;2023-02-28T12:25:55;5.50;99.90
19252;DHT22;9760;50.944;5.304;2023-02-28T12:28:27;5.40;99.90
19252;DHT22;9760;50.944;5.304;2023-02-28T12:31:11;5.40;99.70
19252;DHT22;9760;50.944;5.304;2023-02-28T12:33:45;5.40;99.30
19252;DHT22;9760;50.944;5.304;2023-02-28T12:36:16;5.30;99.10
19252;DHT22;9760;50.944;5.304;2023-02-28T12:39:06;5.20;99.80
19252;DHT22;9760;50.944;5.304;2023-02-28T12:41:45;5.30;99.30
19252;DHT22;9760;50.944;5.304;2023-02-28T12:44:26;5.30;99.90
19252;DHT22;9760;50.944;5.304;2023-02-28T12:46:56;5.50;99.90
19252;DHT22;9760;50.944;5.304;2023-02-28T12:49:29;5.60;99.90
19252;DHT22;9760;50.944;5.304;2023-02-28T12:51:58;5.70;99.90
19252;DHT22;9760;50.944;5.304;2023-02-28T12:54:41;5.60;99.90
19252;DHT22;9760;50.944;5.304;2023-02-28T12:57:19;5.70;99.90
19252;DHT22;9760;50.944;5.304;2023-02-28T12:59:57;5.60;99.80
19252;DHT22;9760;50.944;5.304;2023-02-28T13:10:50;5.40;99.90
19252;DHT22;9760;50.944;5.304;2023-02-28T13:13:25;5.30;99.90
19252;DHT22;9760;50.944;5.304;2023-02-28T13:16:08;5.20;99.90
19252;DHT22;9760;50.944;5.304;2023-02-28T13:18:39;5.30;99.90
19252;DHT22;9760;50.944;5.304;2023-02-28T13:21:08;5.30;99.90
19252;DHT22;9760;50.944;5.304;2023-02-28T13:24:03;5.40;99.90
19252;DHT22;9760;50.944;5.304;2023-02-28T13:29:20;5.40;99.90
19252;DHT22;9760;50.944;5.304;2023-02-28T13:34:31;5.30;99.90
19252;DHT22;9760;50.944;5.304;2023-02-28T13:47:39;5.70;99.90
19252;DHT22;9760;50.944;5.304;2023-02-28T13:50:21;5.50;99.90
19252;DHT22;9760;50.944;5.304;2023-02-28T14:09:03;5.50;99.90
19252;DHT22;9760;50.944;5.304;2023-02-28T14:11:38;5.50;99.90
19252;DHT22;9760;50.944;5.304;2023-02-28T14:14:05;5.50;99.90
19252;DHT22;9760;50.944;5.304;2023-02-28T14:16:49;5.40;99.90
19252;DHT22;9760;50.944;5.304;2023-02-28T14:19:35;5.40;99.90
19252;DHT22;9760;50.944;5.304;2023-02-28T14:27:36;5.30;99.90
19252;DHT22;9760;50.944;5.304;2023-02-28T14:32:54;5.30;99.90
19252;DHT22;9760;50.944;5.304;2023-02-28T14:38:05;5.40;99.90
19252;DHT22;9760;50.944;5.304;2023-02-28T14:40:33;5.40;99.90
19252;DHT22;9760;50.944;5.304;2023-02-28T14:43:05;5.40;99.90
19252;DHT22;9760;50.944;5.304;2023-02-28T14:45:32;5.40;99.90
19252;DHT22;9760;50.944;5.304;2023-02-28T14:48:01;5.40;99.90
19252;DHT22;9760;50.944;5.304;2023-02-28T14:50:32;5.40;99.90
19252;DHT22;9760;50.944;5.304;2023-02-28T14:52:59;5.50;99.90
19252;DHT22;9760;50.944;5.304;2023-02-28T14:55:31;5.30;99.90
19252;DHT22;9760;50.944;5.304;2023-02-28T14:57:59;5.30;99.90
19252;DHT22;9760;50.944;5.304;2023-02-28T15:00:27;5.30;99.90
19252;DHT22;9760;50.944;5.304;2023-02-28T15:02:55;5.30;99.90
19252;DHT22;9760;50.944;5.304;2023-02-28T15:08:16;5.40;99.90
19252;DHT22;9760;50.944;5.304;2023-02-28T15:10:54;5.40;99.90
19252;DHT22;9760;50.944;5.304;2023-02-28T15:13:20;5.40;99.90
19252;DHT22;9760;50.944;5.304;2023-02-28T15:15:59;5.30;99.90
19252;DHT22;9760;50.944;5.304;2023-02-28T15:21:12;5.30;99.90
19252;DHT22;9760;50.944;5.304;2023-02-28T15:23:40;5.30;99.90
19252;DHT22;9760;50.944;5.304;2023-02-28T15:26:09;5.30;99.90
19252;DHT22;9760;50.944;5.304;2023-02-28T15:28:35;5.30;99.90
19252;DHT22;9760;50.944;5.304;2023-02-28T15:31:03;5.40;99.90
19252;DHT22;9760;50.944;5.304;2023-02-28T15:33:52;5.20;99.90
19252;DHT22;9760;50.944;5.304;2023-02-28T15:36:19;5.30;99.90
19252;DHT22;9760;50.944;5.304;2023-02-28T15:38:51;5.40;99.90
19252;DHT22;9760;50.944;5.304;2023-02-28T15:41:35;5.40;99.90
19252;DHT22;9760;50.944;5.304;2023-02-28T15:44:24;5.40;99.90
19252;DHT22;9760;50.944;5.304;2023-02-28T15:47:25;5.30;99.90
19252;DHT22;9760;50.944;5.304;2023-02-28T15:49:58;5.30;99.90
19252;DHT22;9760;50.944;5.304;2023-02-28T15:52:28;5.40;99.90
19252;DHT22;9760;50.944;5.304;2023-02-28T15:54:57;5.30;99.90
19252;DHT22;9760;50.944;5.304;2023-02-28T15:57:29;5.30;99.90
19252;DHT22;9760;50.944;5.304;2023-02-28T15:59:57;5.20;99.90
19252;DHT22;9760;50.944;5.304;2023-02-28T16:02:32;5.20;99.90
19252;DHT22;9760;50.944;5.304;2023-02-28T16:05:23;5.20;99.90
19252;DHT22;9760;50.944;5.304;2023-02-28T16:07:54;5.10;99.90
19252;DHT22;9760;50.944;5.304;2023-02-28T16:10:21;5.30;99.90
19252;DHT22;9760;50.944;5.304;2023-02-28T16:12:50;5.10;99.90
19252;DHT22;9760;50.944;5.304;2023-02-28T16:15:28;5.10;99.90
19252;DHT22;9760;50.944;5.304;2023-02-28T16:17:55;5.10;99.90
19252;DHT22;9760;50.944;5.304;2023-02-28T16:20:26;5.10;99.90
19252;DHT22;9760;50.944;5.304;2023-02-28T16:22:52;5.10;99.90
19252;DHT22;9760;50.944;5.304;2023-02-28T16:25:23;5.00;99.90
19252;DHT22;9760;50.944;5.304;2023-02-28T16:27:50;5.00;99.90
19252;DHT22;9760;50.944;5.304;2023-02-28T16:30:24;5.00;99.90
19252;DHT22;9760;50.944;5.304;2023-02-28T16:32:51;5.00;99.90
19252;DHT22;9760;50.944;5.304;2023-02-28T16:35:19;4.90;99.90
19252;DHT22;9760;50.944;5.304;2023-02-28T16:37:44;4.90;99.90
19252;DHT22;9760;50.944;5.304;2023-02-28T16:40:16;4.90;99.90
19252;DHT22;9760;50.944;5.304;2023-02-28T16:42:42;4.80;99.90
19252;DHT22;9760;50.944;5.304;2023-02-28T16:45:25;4.80;99.90
19252;DHT22;9760;50.944;5.304;2023-02-28T16:47:51;4.80;99.90
19252;DHT22;9760;50.944;5.304;2023-02-28T16:50:23;4.80;99.90
19252;DHT22;9760;50.944;5.304;2023-02-28T16:52:49;4.90;99.90
19252;DHT22;9760;50.944;5.304;2023-02-28T16:55:18;5.00;99.90
19252;DHT22;9760;50.944;5.304;2023-02-28T16:57:44;5.10;99.90
19252;DHT22;9760;50.944;5.304;2023-02-28T17:00:13;5.00;99.90
19252;DHT22;9760;50.944;5.304;2023-02-28T17:02:39;4.90;99.90
19252;DHT22;9760;50.944;5.304;2023-02-28T17:05:05;4.80;99.90
19252;DHT22;9760;50.944;5.304;2023-02-28T17:07:32;4.70;99.90
19252;DHT22;9760;50.944;5.304;2023-02-28T17:09:57;4.60;99.90
19252;DHT22;9760;50.944;5.304;2023-02-28T17:12:23;4.50;99.90
19252;DHT22;9760;50.944;5.304;2023-02-28T17:14:49;4.40;99.90
19252;DHT22;9760;50.944;5.304;2023-02-28T17:17:20;4.40;99.90
19252;DHT22;9760;50.944;5.304;2023-02-28T17:19:46;4.30;99.90
19252;DHT22;9760;50.944;5.304;2023-02-28T17:22:12;4.20;99.90
19252;DHT22;9760;50.944;5.304;2023-02-28T17:24:38;4.20;99.90
19252;DHT22;9760;50.944;5.304;2023-02-28T17:27:04;4.10;99.90
19252;DHT22;9760;50.944;5.304;2023-02-28T17:29:30;4.00;99.90
19252;DHT22;9760;50.944;5.304;2023-02-28T17:31:55;4.00;99.90
19252;DHT22;9760;50.944;5.304;2023-02-28T17:34:21;3.90;99.90
19252;DHT22;9760;50.944;5.304;2023-02-28T17:36:51;3.90;99.90
19252;DHT22;9760;50.944;5.304;2023-02-28T17:39:18;3.80;99.90
19252;DHT22;9760;50.944;5.304;2023-02-28T17:41:58;3.70;99.90
19252;DHT22;9760;50.944;5.304;2023-02-28T17:44:24;3.70;99.90
19252;DHT22;9760;50.944;5.304;2023-02-28T17:46:51;3.60;99.90
19252;DHT22;9760;50.944;5.304;2023-02-28T17:49:17;3.60;99.90
19252;DHT22;9760;50.944;5.304;2023-02-28T17:51:43;3.60;99.90
19252;DHT22;9760;50.944;5.304;2023-02-28T17:54:09;3.50;99.90
19252;DHT22;9760;50.944;5.304;2023-02-28T17:56:34;3.50;99.90
19252;DHT22;9760;50.944;5.304;2023-02-28T17:59:00;3.40;99.90
19252;DHT22;9760;50.944;5.304;2023-02-28T18:01:26;3.40;99.90
19252;DHT22;9760;50.944;5.304;2023-02-28T18:03:52;3.30;99.90
19252;DHT22;9760;50.944;5.304;2023-02-28T18:06:24;3.30;99.90
19252;DHT22;9760;50.944;5.304;2023-02-28T18:08:51;3.30;99.90
19252;DHT22;9760;50.944;5.304;2023-02-28T18:11:18;3.20;99.90
19252;DHT22;9760;50.944;5.304;2023-02-28T18:13:48;3.20;99.90
19252;DHT22;9760;50.944;5.304;2023-02-28T18:16:15;3.10;99.90
19252;DHT22;9760;50.944;5.304;2023-02-28T18:18:41;3.10;99.90
19252;DHT22;9760;50.944;5.304;2023-02-28T18:21:09;3.00;99.90
19252;DHT22;9760;50.944;5.304;2023-02-28T18:23:35;3.00;99.90
19252;DHT22;9760;50.944;5.304;2023-02-28T18:26:01;3.00;99.90
19252;DHT22;9760;50.944;5.304;2023-02-28T18:28:26;2.90;99.90
19252;DHT22;9760;50.944;5.304;2023-02-28T18:30:52;2.90;99.90
19252;DHT22;9760;50.944;5.304;2023-02-28T18:33:18;2.80;99.90
19252;DHT22;9760;50.944;5.304;2023-02-28T18:35:44;2.70;99.90
19252;DHT22;9760;50.944;5.304;2023-02-28T18:38:14;2.70;99.90